McKees Rocks, PA (15136)

8:42 AM EDT on July 25, 2016 (GMT -0400)
Ben Avon | | Change Station

Elev 869 ft 40.51 °N, 80.08 °W | Updated 1 minute ago

Haze
Haze
75.8 °F
Feels Like 76 °F
N
1.1
Wind Variable Wind from NE
Gusts 2.2 mph

Today
High -- | Low -- °F
--% Chance of Precip.
Yesterday
High -- | Low -- °F
Precip. -- in
Pressure 29.98 in
Visibility 6.0 miles
Clouds Few 4500 ft
Few 7500 ft
Scattered Clouds 13000 ft
Mostly Cloudy 25000 ft
Heat Index 76 °F
Dew Point 72 °F
Humidity 89%
Rainfall 0.02 in
Snow Depth Not available.
6:11 AM 8:41 PM
Waning Gibbous, 66% visible
METAR KPIT 251151Z 23004KT 6SM HZ FEW045 FEW075 SCT130 BKN250 24/22 A2999 RMK AO2 SLP151 60002 70038 T02440217 10244 20217 58003
Pressure 29.98 in
Visibility 6.0 miles
Clouds Few 4500 ft
Few 7500 ft
Scattered Clouds 13000 ft
Mostly Cloudy 25000 ft
Heat Index 76 °F
Dew Point 72 °F
Humidity 89%
Rainfall 0.02 in
Snow Depth Not available.
6:11 AM 8:41 PM
Waning Gibbous, 66% visible
METAR KPIT 251151Z 23004KT 6SM HZ FEW045 FEW075 SCT130 BKN250 24/22 A2999 RMK AO2 SLP151 60002 70038 T02440217 10244 20217 58003

10-Day Weather Forecast

Almanac

Astronomy

Jul. 25, 2016 Rise Set
Actual Time
Civil Twilight
Nautical Twilight
Astronomical Twilight
Moon
Length of Visible Light
Length of Day
Tomorrow will be .
, % of the Moon is Illuminated

Today's Extremes

State Highs State Lows

Community

WunderPhotos

Upload Photos

1,927,296 photos uploaded!

WunderBlog® & News

Nearby

Air Quality

  Air Quality AQ Index Pollutant
Not available.

Snow Depth

Station Depth Elevation

Earthquake Activity

City Distance Mag. Time & Date
Minimum magnitude displayed is 2.5.

Coastal Water Temperatures

Place Temperature

Stations

Nearby Weather Stations

Station Location Temp. Windchill Dew Point Humidity Wind Precip. Elev Updated Type
                   

Watches & Warnings

There are currently no watches in effect.